Lost Springs, WY (82224)

6:20 AM MDT on September 28, 2016 (GMT -0600)
Converse County Flyers | | Change Station

Elev 4839 ft 42.74 °N, 105.37 °W | Updated 8 seconds ago

Clear
Clear
38.5 °F
Feels Like 38 °F
N
1.6
Wind Variable Wind from East
Gusts 3.1 mph

Today
High -- | Low -- °F
--% Chance of Precip.
Yesterday
High -- | Low -- °F
Precip. -- in
Pressure 30.18 in
Visibility 10.0 miles
Clouds Clear
Windchill 38 °F
Dew Point 38 °F
Humidity 99%
Rainfall 0.00 in
Snow Depth Not available.
6:54 AM 6:45 PM
Waning Crescent, 6% visible
METAR KDGW 281153Z AUTO 31004KT 10SM CLR 05/03 A3029 RMK AO2 SLP220 T00500028 10094 20039 53010
Pressure 30.18 in
Visibility 10.0 miles
Clouds Clear
Windchill 38 °F
Dew Point 38 °F
Humidity 99%
Rainfall 0.00 in
Snow Depth Not available.
6:54 AM 6:45 PM
Waning Crescent, 6% visible
METAR KDGW 281153Z AUTO 31004KT 10SM CLR 05/03 A3029 RMK AO2 SLP220 T00500028 10094 20039 53010

10-Day Weather Forecast

Almanac

Astronomy

Sep. 28, 2016 Rise Set
Actual Time
Civil Twilight
Nautical Twilight
Astronomical Twilight
Moon
Length of Visible Light
Length of Day
Tomorrow will be .
, % of the Moon is Illuminated

Today's Extremes

State Highs State Lows

Community

WunderPhotos

Upload Photos

1,942,236 photos uploaded!

WunderBlog® & News

Nearby

Air Quality

  Air Quality AQ Index Pollutant
Not available.

Snow Depth

Station Depth Elevation

Earthquake Activity

City Distance Mag. Time & Date
Minimum magnitude displayed is 2.5.

Coastal Water Temperatures

Place Temperature

Stations

Nearby Weather Stations

Station Location Temp. Windchill Dew Point Humidity Wind Precip. Elev Updated Type
                   

Watches & Warnings

There are currently no watches in effect.